sensor_id;sensor_type;location;lat;lon;timestamp;pressure;altitude;pressure_sealevel;temperature;humidity
47815;BME280;33579;50.058;18.130;2023-07-13T00:00:36;98851.69;;;22.11;100.00
47815;BME280;33579;50.058;18.130;2023-07-13T00:01:38;98841.81;;;22.12;100.00
47815;BME280;33579;50.058;18.130;2023-07-13T00:02:39;98845.09;;;22.14;100.00
47815;BME280;33579;50.058;18.130;2023-07-13T00:03:42;98838.47;;;22.16;100.00
47815;BME280;33579;50.058;18.130;2023-07-13T00:04:44;98846.63;;;22.28;100.00
47815;BME280;33579;50.058;18.130;2023-07-13T00:05:45;98847.81;;;22.32;100.00
47815;BME280;33579;50.058;18.130;2023-07-13T00:06:47;98850.88;;;22.36;100.00
47815;BME280;33579;50.058;18.130;2023-07-13T00:07:50;98847.09;;;22.44;100.00
47815;BME280;33579;50.058;18.130;2023-07-13T00:08:52;98840.91;;;22.50;100.00
47815;BME280;33579;50.058;18.130;2023-07-13T00:09:53;98852.84;;;22.48;100.00
47815;BME280;33579;50.058;18.130;2023-07-13T00:10:55;98849.78;;;22.18;100.00
47815;BME280;33579;50.058;18.130;2023-07-13T00:11:57;98845.84;;;21.96;100.00
47815;BME280;33579;50.058;18.130;2023-07-13T00:12:59;98844.25;;;21.88;100.00
47815;BME280;33579;50.058;18.130;2023-07-13T00:14:00;98837.50;;;21.79;100.00
47815;BME280;33579;50.058;18.130;2023-07-13T00:15:10;98843.06;;;21.77;100.00
47815;BME280;33579;50.058;18.130;2023-07-13T00:16:13;98837.09;;;21.75;100.00
47815;BME280;33579;50.058;18.130;2023-07-13T00:17:16;98841.03;;;21.66;100.00
47815;BME280;33579;50.058;18.130;2023-07-13T00:18:17;98830.00;;;21.55;100.00
47815;BME280;33579;50.058;18.130;2023-07-13T00:19:19;98835.72;;;21.59;100.00
47815;BME280;33579;50.058;18.130;2023-07-13T00:20:23;98835.50;;;21.67;100.00
47815;BME280;33579;50.058;18.130;2023-07-13T00:21:25;98840.38;;;21.77;100.00
47815;BME280;33579;50.058;18.130;2023-07-13T00:22:26;98846.09;;;21.87;100.00
47815;BME280;33579;50.058;18.130;2023-07-13T00:23:37;98854.06;;;21.94;100.00
47815;BME280;33579;50.058;18.130;2023-07-13T00:24:39;98847.88;;;22.00;100.00
47815;BME280;33579;50.058;18.130;2023-07-13T00:25:40;98851.16;;;22.02;100.00
47815;BME280;33579;50.058;18.130;2023-07-13T00:26:42;98852.13;;;22.08;100.00
47815;BME280;33579;50.058;18.130;2023-07-13T00:27:44;98855.81;;;22.14;100.00
47815;BME280;33579;50.058;18.130;2023-07-13T00:28:46;98860.50;;;22.18;100.00
47815;BME280;33579;50.058;18.130;2023-07-13T00:29:47;98866.84;;;22.24;100.00
47815;BME280;33579;50.058;18.130;2023-07-13T00:30:49;98890.72;;;22.26;100.00
47815;BME280;33579;50.058;18.130;2023-07-13T00:31:52;98919.81;;;22.22;100.00
47815;BME280;33579;50.058;18.130;2023-07-13T00:32:53;98954.75;;;22.02;100.00
47815;BME280;33579;50.058;18.130;2023-07-13T00:34:13;98952.25;;;21.61;100.00
47815;BME280;33579;50.058;18.130;2023-07-13T00:35:15;98959.91;;;21.51;100.00
47815;BME280;33579;50.058;18.130;2023-07-13T00:36:17;98961.81;;;21.44;100.00
47815;BME280;33579;50.058;18.130;2023-07-13T00:37:19;98946.16;;;21.34;100.00
47815;BME280;33579;50.058;18.130;2023-07-13T00:38:20;98945.38;;;21.33;100.00
47815;BME280;33579;50.058;18.130;2023-07-13T00:39:22;98950.09;;;21.38;100.00
47815;BME280;33579;50.058;18.130;2023-07-13T00:40:24;98937.91;;;21.42;100.00
47815;BME280;33579;50.058;18.130;2023-07-13T00:41:26;98944.91;;;21.43;100.00
47815;BME280;33579;50.058;18.130;2023-07-13T00:42:27;98937.31;;;21.40;100.00
47815;BME280;33579;50.058;18.130;2023-07-13T00:43:30;98938.13;;;21.41;100.00
47815;BME280;33579;50.058;18.130;2023-07-13T00:44:32;98940.41;;;21.37;100.00
47815;BME280;33579;50.058;18.130;2023-07-13T00:46:35;98941.03;;;21.32;100.00
47815;BME280;33579;50.058;18.130;2023-07-13T00:47:38;98944.31;;;21.41;100.00
47815;BME280;33579;50.058;18.130;2023-07-13T00:48:43;98944.09;;;21.50;100.00
47815;BME280;33579;50.058;18.130;2023-07-13T00:49:45;98941.00;;;21.46;100.00
47815;BME280;33579;50.058;18.130;2023-07-13T00:50:52;98935.38;;;21.54;100.00
47815;BME280;33579;50.058;18.130;2023-07-13T00:52:06;98935.78;;;21.58;100.00
47815;BME280;33579;50.058;18.130;2023-07-13T00:53:08;98932.28;;;21.71;100.00
47815;BME280;33579;50.058;18.130;2023-07-13T00:54:15;98937.44;;;21.59;100.00
47815;BME280;33579;50.058;18.130;2023-07-13T00:55:20;98937.03;;;21.69;100.00
47815;BME280;33579;50.058;18.130;2023-07-13T00:57:25;98931.03;;;21.73;100.00
47815;BME280;33579;50.058;18.130;2023-07-13T00:58:26;98916.19;;;21.78;100.00
47815;BME280;33579;50.058;18.130;2023-07-13T00:59:28;98922.31;;;21.85;100.00
47815;BME280;33579;50.058;18.130;2023-07-13T01:00:31;98921.47;;;21.91;100.00
47815;BME280;33579;50.058;18.130;2023-07-13T01:01:33;98914.03;;;21.93;100.00
47815;BME280;33579;50.058;18.130;2023-07-13T01:02:40;98896.47;;;21.97;100.00
47815;BME280;33579;50.058;18.130;2023-07-13T01:03:43;98894.00;;;22.02;100.00
47815;BME280;33579;50.058;18.130;2023-07-13T01:04:45;98886.97;;;22.08;100.00
47815;BME280;33579;50.058;18.130;2023-07-13T01:05:48;98884.53;;;22.00;100.00
47815;BME280;33579;50.058;18.130;2023-07-13T01:06:51;98879.19;;;22.00;100.00
47815;BME280;33579;50.058;18.130;2023-07-13T01:07:53;98871.53;;;22.03;100.00
47815;BME280;33579;50.058;18.130;2023-07-13T01:08:56;98870.06;;;22.08;100.00
47815;BME280;33579;50.058;18.130;2023-07-13T01:10:00;98866.72;;;22.12;100.00
47815;BME280;33579;50.058;18.130;2023-07-13T01:11:02;98867.59;;;22.06;100.00
47815;BME280;33579;50.058;18.130;2023-07-13T01:12:04;98859.53;;;21.81;100.00
47815;BME280;33579;50.058;18.130;2023-07-13T01:13:08;98859.72;;;21.86;100.00
47815;BME280;33579;50.058;18.130;2023-07-13T01:14:10;98853.91;;;21.89;100.00
47815;BME280;33579;50.058;18.130;2023-07-13T01:15:41;98855.75;;;21.50;100.00
47815;BME280;33579;50.058;18.130;2023-07-13T01:16:46;98856.25;;;21.26;100.00
47815;BME280;33579;50.058;18.130;2023-07-13T01:17:48;98851.59;;;21.08;100.00
47815;BME280;33579;50.058;18.130;2023-07-13T01:18:50;98858.94;;;21.26;100.00
47815;BME280;33579;50.058;18.130;2023-07-13T01:19:52;98853.13;;;21.43;100.00
47815;BME280;33579;50.058;18.130;2023-07-13T01:21:01;98843.03;;;21.45;100.00
47815;BME280;33579;50.058;18.130;2023-07-13T01:22:05;98844.63;;;21.53;100.00
47815;BME280;33579;50.058;18.130;2023-07-13T01:23:09;98847.94;;;21.48;100.00
47815;BME280;33579;50.058;18.130;2023-07-13T01:24:11;98847.53;;;21.44;100.00
47815;BME280;33579;50.058;18.130;2023-07-13T01:25:13;98854.81;;;21.37;100.00
47815;BME280;33579;50.058;18.130;2023-07-13T01:26:17;98858.75;;;21.28;100.00
47815;BME280;33579;50.058;18.130;2023-07-13T01:27:25;98848.75;;;21.03;100.00
47815;BME280;33579;50.058;18.130;2023-07-13T01:28:28;98854.53;;;20.93;100.00
47815;BME280;33579;50.058;18.130;2023-07-13T01:29:31;98843.63;;;20.88;100.00
47815;BME280;33579;50.058;18.130;2023-07-13T01:30:34;98838.50;;;20.86;100.00
47815;BME280;33579;50.058;18.130;2023-07-13T01:31:36;98828.44;;;20.88;100.00
47815;BME280;33579;50.058;18.130;2023-07-13T01:32:38;98823.69;;;20.90;100.00
47815;BME280;33579;50.058;18.130;2023-07-13T01:33:40;98821.44;;;20.87;100.00
47815;BME280;33579;50.058;18.130;2023-07-13T01:34:42;98819.38;;;20.89;100.00
47815;BME280;33579;50.058;18.130;2023-07-13T01:35:45;98815.25;;;20.94;100.00
47815;BME280;33579;50.058;18.130;2023-07-13T01:36:47;98808.25;;;20.92;100.00
47815;BME280;33579;50.058;18.130;2023-07-13T01:37:49;98814.63;;;20.91;100.00
47815;BME280;33579;50.058;18.130;2023-07-13T01:38:51;98816.50;;;20.84;100.00
47815;BME280;33579;50.058;18.130;2023-07-13T01:39:53;98812.59;;;20.80;100.00
47815;BME280;33579;50.058;18.130;2023-07-13T01:40:54;98807.28;;;20.67;100.00
47815;BME280;33579;50.058;18.130;2023-07-13T01:41:58;98809.72;;;20.75;100.00
47815;BME280;33579;50.058;18.130;2023-07-13T01:43:00;98811.59;;;20.81;100.00
47815;BME280;33579;50.058;18.130;2023-07-13T01:44:02;98806.84;;;20.83;100.00
47815;BME280;33579;50.058;18.130;2023-07-13T01:45:05;98804.56;;;20.94;100.00
47815;BME280;33579;50.058;18.130;2023-07-13T01:46:06;98813.41;;;20.94;100.00
47815;BME280;33579;50.058;18.130;2023-07-13T01:47:24;98809.72;;;20.75;100.00
47815;BME280;33579;50.058;18.130;2023-07-13T01:48:25;98811.41;;;20.62;100.00
47815;BME280;33579;50.058;18.130;2023-07-13T01:49:27;98804.00;;;20.64;100.00
47815;BME280;33579;50.058;18.130;2023-07-13T01:50:29;98813.84;;;20.64;100.00
47815;BME280;33579;50.058;18.130;2023-07-13T01:51:31;98811.38;;;20.56;100.00
47815;BME280;33579;50.058;18.130;2023-07-13T01:52:32;98820.06;;;20.51;100.00
47815;BME280;33579;50.058;18.130;2023-07-13T01:53:34;98812.03;;;20.51;100.00
47815;BME280;33579;50.058;18.130;2023-07-13T01:54:36;98820.69;;;20.46;100.00
47815;BME280;33579;50.058;18.130;2023-07-13T01:55:37;98823.75;;;20.43;100.00
47815;BME280;33579;50.058;18.130;2023-07-13T01:56:39;98813.88;;;20.44;100.00
47815;BME280;33579;50.058;18.130;2023-07-13T01:57:41;98812.88;;;20.38;100.00
47815;BME280;33579;50.058;18.130;2023-07-13T01:58:42;98814.31;;;20.34;100.00
47815;BME280;33579;50.058;18.130;2023-07-13T01:59:44;98814.94;;;20.36;100.00
47815;BME280;33579;50.058;18.130;2023-07-13T02:00:48;98829.31;;;20.28;100.00
47815;BME280;33579;50.058;18.130;2023-07-13T02:01:50;98820.91;;;20.25;100.00
47815;BME280;33579;50.058;18.130;2023-07-13T02:02:53;98818.03;;;20.26;100.00
47815;BME280;33579;50.058;18.130;2023-07-13T02:03:54;98811.84;;;20.19;100.00
47815;BME280;33579;50.058;18.130;2023-07-13T02:04:56;98817.81;;;20.14;100.00
47815;BME280;33579;50.058;18.130;2023-07-13T02:05:58;98811.66;;;20.14;100.00
47815;BME280;33579;50.058;18.130;2023-07-13T02:07:00;98812.47;;;20.01;100.00
47815;BME280;33579;50.058;18.130;2023-07-13T02:08:01;98807.97;;;20.01;100.00
47815;BME280;33579;50.058;18.130;2023-07-13T02:09:05;98814.69;;;19.90;100.00
47815;BME280;33579;50.058;18.130;2023-07-13T02:10:08;98816.53;;;19.83;100.00
47815;BME280;33579;50.058;18.130;2023-07-13T02:11:10;98805.22;;;19.74;100.00
47815;BME280;33579;50.058;18.130;2023-07-13T02:12:12;98807.88;;;19.81;100.00
47815;BME280;33579;50.058;18.130;2023-07-13T02:13:13;98802.56;;;19.81;100.00
47815;BME280;33579;50.058;18.130;2023-07-13T02:14:15;98802.78;;;19.86;100.00
47815;BME280;33579;50.058;18.130;2023-07-13T02:15:17;98800.72;;;19.82;100.00
47815;BME280;33579;50.058;18.130;2023-07-13T02:16:19;98792.72;;;19.82;100.00
47815;BME280;33579;50.058;18.130;2023-07-13T02:17:21;98781.44;;;19.79;100.00
47815;BME280;33579;50.058;18.130;2023-07-13T02:18:23;98785.31;;;19.84;100.00
47815;BME280;33579;50.058;18.130;2023-07-13T02:19:24;98783.88;;;19.88;100.00
47815;BME280;33579;50.058;18.130;2023-07-13T02:20:26;98774.44;;;19.92;100.00
47815;BME280;33579;50.058;18.130;2023-07-13T02:21:27;98775.66;;;19.83;100.00
47815;BME280;33579;50.058;18.130;2023-07-13T02:22:29;98766.63;;;19.84;100.00
47815;BME280;33579;50.058;18.130;2023-07-13T02:23:31;98761.72;;;19.87;100.00
47815;BME280;33579;50.058;18.130;2023-07-13T02:24:33;98761.72;;;19.87;100.00
47815;BME280;33579;50.058;18.130;2023-07-13T02:25:34;98757.59;;;19.85;100.00
47815;BME280;33579;50.058;18.130;2023-07-13T02:26:36;98758.00;;;19.82;100.00
47815;BME280;33579;50.058;18.130;2023-07-13T02:27:37;98753.50;;;19.89;100.00
47815;BME280;33579;50.058;18.130;2023-07-13T02:28:39;98754.94;;;20.05;100.00
47815;BME280;33579;50.058;18.130;2023-07-13T02:29:41;98755.16;;;20.17;100.00
47815;BME280;33579;50.058;18.130;2023-07-13T02:30:42;98763.78;;;20.26;100.00
47815;BME280;33579;50.058;18.130;2023-07-13T02:31:44;98755.56;;;20.34;100.00
47815;BME280;33579;50.058;18.130;2023-07-13T02:32:46;98751.84;;;20.42;100.00
47815;BME280;33579;50.058;18.130;2023-07-13T02:33:48;98752.84;;;20.47;100.00
47815;BME280;33579;50.058;18.130;2023-07-13T02:34:49;98753.66;;;20.48;100.00
47815;BME280;33579;50.058;18.130;2023-07-13T02:35:51;98756.72;;;20.58;100.00
47815;BME280;33579;50.058;18.130;2023-07-13T02:36:52;98764.09;;;20.63;100.00
47815;BME280;33579;50.058;18.130;2023-07-13T02:37:54;98764.72;;;20.65;100.00
47815;BME280;33579;50.058;18.130;2023-07-13T02:38:56;98775.97;;;20.74;100.00
47815;BME280;33579;50.058;18.130;2023-07-13T02:39:57;98777.22;;;20.78;100.00
47815;BME280;33579;50.058;18.130;2023-07-13T02:41:00;98779.91;;;20.78;100.00
47815;BME280;33579;50.058;18.130;2023-07-13T02:42:01;98789.56;;;20.86;100.00
47815;BME280;33579;50.058;18.130;2023-07-13T02:43:03;98796.13;;;20.90;100.00
47815;BME280;33579;50.058;18.130;2023-07-13T02:44:05;98788.50;;;20.94;100.00
47815;BME280;33579;50.058;18.130;2023-07-13T02:45:08;98790.97;;;20.95;100.00
47815;BME280;33579;50.058;18.130;2023-07-13T02:46:10;98788.47;;;21.00;100.00
47815;BME280;33579;50.058;18.130;2023-07-13T02:47:12;98787.44;;;21.01;100.00
47815;BME280;33579;50.058;18.130;2023-07-13T02:48:14;98789.06;;;21.09;100.00
47815;BME280;33579;50.058;18.130;2023-07-13T02:49:15;98786.56;;;21.14;100.00
47815;BME280;33579;50.058;18.130;2023-07-13T02:50:17;98782.91;;;21.09;100.00
47815;BME280;33579;50.058;18.130;2023-07-13T02:51:19;98777.88;;;20.67;100.00
47815;BME280;33579;50.058;18.130;2023-07-13T02:52:21;98787.59;;;20.41;100.00
47815;BME280;33579;50.058;18.130;2023-07-13T02:53:22;98791.69;;;20.30;100.00
47815;BME280;33579;50.058;18.130;2023-07-13T02:54:24;98789.44;;;20.27;100.00
47815;BME280;33579;50.058;18.130;2023-07-13T02:55:26;98799.53;;;20.18;100.00
47815;BME280;33579;50.058;18.130;2023-07-13T02:56:30;98804.03;;;20.17;100.00
47815;BME280;33579;50.058;18.130;2023-07-13T02:57:32;98800.13;;;20.33;100.00
47815;BME280;33579;50.058;18.130;2023-07-13T02:58:33;98804.41;;;20.48;100.00
47815;BME280;33579;50.058;18.130;2023-07-13T02:59:35;98807.69;;;20.63;100.00
47815;BME280;33579;50.058;18.130;2023-07-13T03:00:38;98802.53;;;20.75;100.00
47815;BME280;33579;50.058;18.130;2023-07-13T03:01:40;98802.72;;;20.81;100.00
47815;BME280;33579;50.058;18.130;2023-07-13T03:02:42;98798.38;;;20.86;100.00
47815;BME280;33579;50.058;18.130;2023-07-13T03:03:45;98795.94;;;20.85;100.00
47815;BME280;33579;50.058;18.130;2023-07-13T03:04:47;98797.59;;;20.86;100.00
47815;BME280;33579;50.058;18.130;2023-07-13T03:05:58;98797.75;;;20.91;100.00
47815;BME280;33579;50.058;18.130;2023-07-13T03:07:03;98795.91;;;20.91;100.00
47815;BME280;33579;50.058;18.130;2023-07-13T03:08:11;98795.72;;;20.93;100.00
47815;BME280;33579;50.058;18.130;2023-07-13T03:09:14;98796.53;;;20.94;100.00
47815;BME280;33579;50.058;18.130;2023-07-13T03:10:21;98800.63;;;20.96;100.00
47815;BME280;33579;50.058;18.130;2023-07-13T03:11:24;98797.13;;;20.96;100.00
47815;BME280;33579;50.058;18.130;2023-07-13T03:12:38;98798.16;;;20.95;100.00
47815;BME280;33579;50.058;18.130;2023-07-13T03:13:45;98801.03;;;21.00;100.00
47815;BME280;33579;50.058;18.130;2023-07-13T03:14:47;98797.94;;;21.03;100.00
47815;BME280;33579;50.058;18.130;2023-07-13T03:15:49;98792.16;;;21.06;100.00
47815;BME280;33579;50.058;18.130;2023-07-13T03:16:51;98793.00;;;21.06;100.00
47815;BME280;33579;50.058;18.130;2023-07-13T03:17:54;98799.75;;;21.09;100.00
47815;BME280;33579;50.058;18.130;2023-07-13T03:18:57;98799.56;;;21.11;100.00
47815;BME280;33579;50.058;18.130;2023-07-13T03:19:58;98793.38;;;21.10;100.00
47815;BME280;33579;50.058;18.130;2023-07-13T03:21:00;98795.00;;;21.11;100.00
47815;BME280;33579;50.058;18.130;2023-07-13T03:22:02;98804.25;;;21.15;100.00
47815;BME280;33579;50.058;18.130;2023-07-13T03:23:04;98793.13;;;21.18;100.00
47815;BME280;33579;50.058;18.130;2023-07-13T03:24:06;98797.25;;;21.21;100.00
47815;BME280;33579;50.058;18.130;2023-07-13T03:25:08;98797.66;;;21.25;100.00
47815;BME280;33579;50.058;18.130;2023-07-13T03:26:13;98806.88;;;21.29;100.00
47815;BME280;33579;50.058;18.130;2023-07-13T03:27:17;98805.44;;;21.26;100.00
47815;BME280;33579;50.058;18.130;2023-07-13T03:28:20;98805.00;;;21.29;100.00
47815;BME280;33579;50.058;18.130;2023-07-13T03:29:22;98811.59;;;21.33;100.00
47815;BME280;33579;50.058;18.130;2023-07-13T03:30:25;98820.81;;;21.38;100.00
47815;BME280;33579;50.058;18.130;2023-07-13T03:31:29;98813.84;;;21.37;100.00
47815;BME280;33579;50.058;18.130;2023-07-13T03:32:31;98816.09;;;21.33;100.00
47815;BME280;33579;50.058;18.130;2023-07-13T03:33:33;98817.56;;;21.29;100.00
47815;BME280;33579;50.058;18.130;2023-07-13T03:34:36;98815.53;;;21.24;100.00
47815;BME280;33579;50.058;18.130;2023-07-13T03:35:40;98818.22;;;21.24;100.00
47815;BME280;33579;50.058;18.130;2023-07-13T03:36:42;98825.44;;;21.24;100.00
47815;BME280;33579;50.058;18.130;2023-07-13T03:37:46;98826.84;;;21.26;100.00
47815;BME280;33579;50.058;18.130;2023-07-13T03:38:55;98830.34;;;21.27;100.00
47815;BME280;33579;50.058;18.130;2023-07-13T03:40:01;98828.72;;;21.26;100.00
47815;BME280;33579;50.058;18.130;2023-07-13T03:41:04;98831.56;;;21.31;100.00
47815;BME280;33579;50.058;18.130;2023-07-13T03:42:06;98836.69;;;21.32;100.00
47815;BME280;33579;50.058;18.130;2023-07-13T03:43:08;98844.94;;;21.31;100.00
47815;BME280;33579;50.058;18.130;2023-07-13T03:44:09;98842.06;;;21.32;100.00
47815;BME280;33579;50.058;18.130;2023-07-13T03:45:11;98840.19;;;21.33;100.00
47815;BME280;33579;50.058;18.130;2023-07-13T03:46:13;98835.44;;;21.35;100.00
47815;BME280;33579;50.058;18.130;2023-07-13T03:47:15;98830.50;;;21.32;100.00
47815;BME280;33579;50.058;18.130;2023-07-13T03:48:18;98836.31;;;21.29;100.00
47815;BME280;33579;50.058;18.130;2023-07-13T03:49:20;98842.09;;;21.26;100.00
47815;BME280;33579;50.058;18.130;2023-07-13T03:50:21;98842.47;;;21.29;100.00
47815;BME280;33579;50.058;18.130;2023-07-13T03:51:23;98858.09;;;21.32;100.00
47815;BME280;33579;50.058;18.130;2023-07-13T03:52:25;98858.09;;;21.32;100.00
47815;BME280;33579;50.058;18.130;2023-07-13T03:53:26;98867.56;;;21.28;100.00
47815;BME280;33579;50.058;18.130;2023-07-13T03:54:28;98867.97;;;21.32;100.00
47815;BME280;33579;50.058;18.130;2023-07-13T03:55:30;98870.66;;;21.32;100.00
47815;BME280;33579;50.058;18.130;2023-07-13T03:56:32;98869.63;;;21.33;100.00
47815;BME280;33579;50.058;18.130;2023-07-13T03:57:35;98871.88;;;21.36;100.00
47815;BME280;33579;50.058;18.130;2023-07-13T03:58:42;98871.22;;;21.41;100.00
47815;BME280;33579;50.058;18.130;2023-07-13T03:59:49;98867.75;;;21.40;100.00
47815;BME280;33579;50.058;18.130;2023-07-13T04:00:51;98873.50;;;21.44;100.00
47815;BME280;33579;50.058;18.130;2023-07-13T04:01:52;98868.94;;;21.44;100.00
47815;BME280;33579;50.058;18.130;2023-07-13T04:02:54;98869.34;;;21.48;100.00
47815;BME280;33579;50.058;18.130;2023-07-13T04:03:57;98862.16;;;21.48;100.00
47815;BME280;33579;50.058;18.130;2023-07-13T04:05:04;98862.97;;;21.49;100.00
47815;BME280;33579;50.058;18.130;2023-07-13T04:06:08;98862.53;;;21.52;100.00
47815;BME280;33579;50.058;18.130;2023-07-13T04:07:14;98852.22;;;21.56;100.00
47815;BME280;33579;50.058;18.130;2023-07-13T04:08:16;98864.38;;;21.58;100.00
47815;BME280;33579;50.058;18.130;2023-07-13T04:09:18;98865.59;;;21.56;100.00
47815;BME280;33579;50.058;18.130;2023-07-13T04:10:19;98859.25;;;21.50;100.00
47815;BME280;33579;50.058;18.130;2023-07-13T04:11:23;98858.66;;;21.48;100.00
47815;BME280;33579;50.058;18.130;2023-07-13T04:12:25;98861.13;;;21.50;100.00
47815;BME280;33579;50.058;18.130;2023-07-13T04:13:30;98863.13;;;21.54;100.00
47815;BME280;33579;50.058;18.130;2023-07-13T04:14:32;98863.38;;;21.53;100.00
47815;BME280;33579;50.058;18.130;2023-07-13T04:15:34;98862.31;;;21.54;100.00
47815;BME280;33579;50.058;18.130;2023-07-13T04:16:35;98864.16;;;21.53;100.00
47815;BME280;33579;50.058;18.130;2023-07-13T04:17:37;98869.94;;;21.50;100.00
47815;BME280;33579;50.058;18.130;2023-07-13T04:18:39;98868.91;;;21.51;100.00
47815;BME280;33579;50.058;18.130;2023-07-13T04:19:40;98864.16;;;21.53;100.00
47815;BME280;33579;50.058;18.130;2023-07-13T04:20:42;98865.81;;;21.54;100.00
47815;BME280;33579;50.058;18.130;2023-07-13T04:21:44;98866.63;;;21.55;100.00
47815;BME280;33579;50.058;18.130;2023-07-13T04:22:45;98867.69;;;21.54;100.00
47815;BME280;33579;50.058;18.130;2023-07-13T04:23:47;98864.56;;;21.57;100.00
47815;BME280;33579;50.058;18.130;2023-07-13T04:24:49;98868.88;;;21.58;100.00
47815;BME280;33579;50.058;18.130;2023-07-13T04:25:52;98871.56;;;21.58;100.00
47815;BME280;33579;50.058;18.130;2023-07-13T04:26:54;98870.31;;;21.60;100.00
47815;BME280;33579;50.058;18.130;2023-07-13T04:27:56;98868.84;;;21.65;100.00
47815;BME280;33579;50.058;18.130;2023-07-13T04:28:58;98871.16;;;21.68;100.00
47815;BME280;33579;50.058;18.130;2023-07-13T04:29:59;98877.50;;;21.73;100.00
47815;BME280;33579;50.058;18.130;2023-07-13T04:31:01;98878.91;;;21.76;100.00
47815;BME280;33579;50.058;18.130;2023-07-13T04:32:03;98875.44;;;21.75;100.00
47815;BME280;33579;50.058;18.130;2023-07-13T04:33:06;98876.22;;;21.76;100.00
47815;BME280;33579;50.058;18.130;2023-07-13T04:34:07;98877.06;;;21.76;100.00
47815;BME280;33579;50.058;18.130;2023-07-13T04:35:09;98878.69;;;21.78;100.00
47815;BME280;33579;50.058;18.130;2023-07-13T04:36:11;98881.16;;;21.79;100.00
47815;BME280;33579;50.058;18.130;2023-07-13T04:37:13;98874.00;;;21.73;100.00
47815;BME280;33579;50.058;18.130;2023-07-13T04:38:15;98871.50;;;21.71;100.00
47815;BME280;33579;50.058;18.130;2023-07-13T04:39:17;98872.50;;;21.77;100.00
47815;BME280;33579;50.058;18.130;2023-07-13T04:40:20;98867.75;;;21.86;100.00
47815;BME280;33579;50.058;18.130;2023-07-13T04:41:21;98872.44;;;21.90;100.00
47815;BME280;33579;50.058;18.130;2023-07-13T04:42:23;98873.84;;;21.93;100.00
47815;BME280;33579;50.058;18.130;2023-07-13T04:43:26;98873.66;;;21.95;100.00
47815;BME280;33579;50.058;18.130;2023-07-13T04:44:28;98878.78;;;21.96;100.00
47815;BME280;33579;50.058;18.130;2023-07-13T04:45:29;98867.69;;;21.93;100.00
47815;BME280;33579;50.058;18.130;2023-07-13T04:46:31;98872.06;;;21.87;100.00
47815;BME280;33579;50.058;18.130;2023-07-13T04:47:33;98870.19;;;21.87;100.00
47815;BME280;33579;50.058;18.130;2023-07-13T04:48:35;98865.63;;;21.95;100.00
47815;BME280;33579;50.058;18.130;2023-07-13T04:49:36;98863.69;;;22.02;100.00
47815;BME280;33579;50.058;18.130;2023-07-13T04:50:38;98864.69;;;22.08;100.00
47815;BME280;33579;50.058;18.130;2023-07-13T04:51:40;98872.91;;;22.13;100.00
47815;BME280;33579;50.058;18.130;2023-07-13T04:52:41;98860.16;;;22.08;100.00
47815;BME280;33579;50.058;18.130;2023-07-13T04:53:43;98862.63;;;22.10;100.00
47815;BME280;33579;50.058;18.130;2023-07-13T04:54:45;98857.66;;;22.13;100.00
47815;BME280;33579;50.058;18.130;2023-07-13T04:55:46;98861.31;;;22.19;100.00
47815;BME280;33579;50.058;18.130;2023-07-13T04:56:48;98866.84;;;22.24;100.00
47815;BME280;33579;50.058;18.130;2023-07-13T04:57:50;98866.81;;;22.31;100.00
47815;BME280;33579;50.058;18.130;2023-07-13T04:58:52;98861.19;;;22.32;100.00
47815;BME280;33579;50.058;18.130;2023-07-13T04:59:54;98859.94;;;22.35;100.00
47815;BME280;33579;50.058;18.130;2023-07-13T05:01:05;98865.25;;;22.42;100.00
47815;BME280;33579;50.058;18.130;2023-07-13T05:02:07;98862.13;;;22.45;100.00
47815;BME280;33579;50.058;18.130;2023-07-13T05:03:09;98855.13;;;22.44;100.00
47815;BME280;33579;50.058;18.130;2023-07-13T05:04:11;98862.44;;;22.37;100.00
47815;BME280;33579;50.058;18.130;2023-07-13T05:05:13;98859.75;;;22.37;100.00
47815;BME280;33579;50.058;18.130;2023-07-13T05:06:15;98856.63;;;22.40;100.00
47815;BME280;33579;50.058;18.130;2023-07-13T05:07:16;98856.75;;;22.45;100.00
47815;BME280;33579;50.058;18.130;2023-07-13T05:08:18;98855.34;;;22.49;100.00
47815;BME280;33579;50.058;18.130;2023-07-13T05:09:20;98856.13;;;22.50;100.00
47815;BME280;33579;50.058;18.130;2023-07-13T05:10:21;98852.25;;;22.45;100.00
47815;BME280;33579;50.058;18.130;2023-07-13T05:11:24;98853.69;;;22.48;100.00
47815;BME280;33579;50.058;18.130;2023-07-13T05:12:26;98852.66;;;22.49;100.00
47815;BME280;33579;50.058;18.130;2023-07-13T05:13:28;98851.38;;;22.52;100.00
47815;BME280;33579;50.058;18.130;2023-07-13T05:14:31;98852.81;;;22.54;100.00
47815;BME280;33579;50.058;18.130;2023-07-13T05:15:33;98857.13;;;22.55;100.00
47815;BME280;33579;50.058;18.130;2023-07-13T05:16:34;98851.56;;;22.57;100.00
47815;BME280;33579;50.058;18.130;2023-07-13T05:17:36;98848.28;;;22.55;100.00
47815;BME280;33579;50.058;18.130;2023-07-13T05:18:38;98862.03;;;22.58;100.00
47815;BME280;33579;50.058;18.130;2023-07-13T05:19:43;98854.22;;;22.57;100.00
47815;BME280;33579;50.058;18.130;2023-07-13T05:20:45;98858.16;;;22.54;100.00
47815;BME280;33579;50.058;18.130;2023-07-13T05:21:46;98848.47;;;22.53;100.00
47815;BME280;33579;50.058;18.130;2023-07-13T05:22:48;98843.72;;;22.55;100.00
47815;BME280;33579;50.058;18.130;2023-07-13T05:23:50;98851.31;;;22.58;100.00
47815;BME280;33579;50.058;18.130;2023-07-13T05:24:52;98849.25;;;22.60;100.00
47815;BME280;33579;50.058;18.130;2023-07-13T05:25:53;98846.13;;;22.64;100.00